createdAt,value
2019-03-21T00:02:27.237Z,1.12
2019-03-21T00:05:24.028Z,1.08
2019-03-21T00:08:21.349Z,1.07
2019-03-21T00:11:58.639Z,1.03
2019-03-21T00:15:15.154Z,0.98
2019-03-21T00:18:19.164Z,0.97
2019-03-21T00:21:14.903Z,0.98
2019-03-21T00:24:12.227Z,0.97
2019-03-21T00:27:08.468Z,0.90
2019-03-21T00:30:06.683Z,0.90
2019-03-21T00:33:04.173Z,0.87
2019-03-21T00:36:01.325Z,0.86
2019-03-21T00:38:59.439Z,0.86
2019-03-21T00:41:55.228Z,0.84
2019-03-21T00:44:52.005Z,0.79
2019-03-21T00:47:48.005Z,0.80
2019-03-21T00:50:44.973Z,0.80
2019-03-21T00:53:42.370Z,0.80
2019-03-21T00:56:38.471Z,0.76
2019-03-21T00:59:36.531Z,0.77
2019-03-21T01:02:32.735Z,0.76
2019-03-21T01:05:30.811Z,0.76
2019-03-21T01:08:26.784Z,0.76
2019-03-21T01:11:24.107Z,0.77
2019-03-21T01:14:29.347Z,0.74
2019-03-21T01:17:17.897Z,0.76
2019-03-21T01:20:16.153Z,0.75
2019-03-21T01:23:13.548Z,0.75
2019-03-21T01:26:11.820Z,0.75
2019-03-21T01:29:08.869Z,0.73
2019-03-21T01:32:07.562Z,0.70
2019-03-21T01:35:03.849Z,0.70
2019-03-21T01:37:59.814Z,0.66
2019-03-21T01:40:56.196Z,0.61
2019-03-21T01:43:52.584Z,0.54
2019-03-21T01:46:49.530Z,0.52
2019-03-21T01:49:47.708Z,0.51
2019-03-21T01:52:43.736Z,0.47
2019-03-21T01:55:41.114Z,0.42
2019-03-21T01:58:37.321Z,0.42
2019-03-21T02:01:34.600Z,0.46
2019-03-21T02:04:30.441Z,0.41
2019-03-21T02:07:28.194Z,0.42
2019-03-21T02:10:26.424Z,0.43
2019-03-21T02:13:23.208Z,0.43
2019-03-21T02:16:19.415Z,0.37
2019-03-21T02:19:16.490Z,0.37
2019-03-21T02:22:13.754Z,0.35
2019-03-21T02:25:09.759Z,0.33
2019-03-21T02:28:07.217Z,0.33
2019-03-21T02:31:04.406Z,0.30
2019-03-21T02:34:01.144Z,0.26
2019-03-21T02:36:57.590Z,0.23
2019-03-21T02:39:59.847Z,0.22
2019-03-21T02:42:49.725Z,0.21
2019-03-21T02:45:47.075Z,0.28
2019-03-21T02:48:43.190Z,0.26
2019-03-21T02:51:41.320Z,0.16
2019-03-21T02:54:38.674Z,0.12
2019-03-21T02:57:34.942Z,0.06
2019-03-21T03:00:34.772Z,0.05
2019-03-21T03:03:30.028Z,0.06
2019-03-21T03:06:27.163Z,0.10
2019-03-21T03:09:24.403Z,0.12
2019-03-21T03:12:20.694Z,0.07
2019-03-21T03:15:23.123Z,0.06
2019-03-21T03:18:14.798Z,0.04
2019-03-21T03:21:13.102Z,0.04
2019-03-21T03:24:09.269Z,0.02
2019-03-21T03:27:06.578Z,0.06
2019-03-21T03:30:03.647Z,0.02
2019-03-21T03:32:59.286Z,0.07
2019-03-21T03:35:56.235Z,0.10
2019-03-21T03:38:53.651Z,0.05
2019-03-21T03:41:50.774Z,0.03
2019-03-21T03:44:46.754Z,-0.02
2019-03-21T03:47:45.072Z,-0.02
2019-03-21T03:50:40.675Z,-0.02
2019-03-21T03:53:37.710Z,-0.05
2019-03-21T03:56:33.780Z,-0.09
2019-03-21T03:59:30.282Z,-0.09
2019-03-21T04:02:28.304Z,-0.07
2019-03-21T04:05:24.777Z,-0.09
2019-03-21T04:08:23.051Z,-0.07
2019-03-21T04:11:21.233Z,-0.10
2019-03-21T04:14:18.386Z,-0.16
2019-03-21T04:17:14.756Z,-0.16
2019-03-21T04:20:11.876Z,-0.16
2019-03-21T04:23:10.024Z,-0.20
2019-03-21T04:26:30.990Z,-0.25
2019-03-21T04:29:28.354Z,-0.21
2019-03-21T04:32:26.593Z,-0.17
2019-03-21T04:35:22.726Z,-0.15
2019-03-21T04:38:20.557Z,-0.13
2019-03-21T04:41:16.905Z,-0.20
2019-03-21T04:44:14.314Z,-0.22
2019-03-21T04:47:10.510Z,-0.22
2019-03-21T04:50:07.571Z,-0.24
2019-03-21T04:53:04.207Z,-0.19
2019-03-21T04:56:01.062Z,-0.16
2019-03-21T04:58:57.286Z,-0.16
2019-03-21T05:01:55.576Z,-0.18
2019-03-21T05:04:51.592Z,-0.26
2019-03-21T05:08:05.370Z,-0.21
2019-03-21T05:11:02.318Z,-0.19
2019-03-21T05:13:59.514Z,-0.20
2019-03-21T05:16:58.057Z,-0.25
2019-03-21T05:19:54.348Z,-0.33
2019-03-21T05:22:52.332Z,-0.27
2019-03-21T05:25:50.420Z,-0.30
2019-03-21T05:28:46.524Z,-0.36
2019-03-21T05:31:46.661Z,-0.45
2019-03-21T05:34:42.847Z,-0.48
2019-03-21T05:37:40.065Z,-0.47
2019-03-21T05:40:36.401Z,-0.45
2019-03-21T05:43:40.531Z,-0.46
2019-03-21T05:46:36.437Z,-0.43
2019-03-21T05:49:34.346Z,-0.38
2019-03-21T05:52:30.210Z,-0.30
2019-03-21T05:55:27.592Z,-0.22
2019-03-21T05:58:24.374Z,-0.15
2019-03-21T06:01:20.635Z,-0.09
2019-03-21T06:04:18.963Z,-0.05
2019-03-21T06:07:26.413Z,-0.04
2019-03-21T06:10:24.796Z,-0.01
2019-03-21T06:13:23.203Z,0.08
2019-03-21T06:16:24.652Z,0.15
2019-03-21T06:19:33.039Z,0.19
2019-03-21T06:22:58.305Z,0.20
2019-03-21T06:26:32.367Z,0.27
2019-03-21T06:29:29.478Z,0.33
2019-03-21T06:32:24.883Z,0.39
2019-03-21T06:35:22.851Z,0.44
2019-03-21T06:38:20.248Z,0.54
2019-03-21T06:41:17.347Z,0.62
2019-03-21T06:44:15.495Z,0.72
2019-03-21T06:47:12.593Z,0.83
2019-03-21T06:50:09.235Z,0.90
2019-03-21T06:53:04.725Z,0.95
2019-03-21T06:56:01.970Z,1.01
2019-03-21T06:58:58.188Z,1.11
2019-03-21T07:01:55.527Z,1.20
2019-03-21T07:04:53.722Z,1.30
2019-03-21T07:07:50.904Z,1.39
2019-03-21T07:10:49.103Z,1.49
2019-03-21T07:13:45.157Z,1.58
2019-03-21T07:16:41.637Z,1.66
2019-03-21T07:19:37.271Z,1.79
2019-03-21T07:22:33.970Z,1.89
2019-03-21T07:25:31.615Z,1.98
2019-03-21T07:28:28.025Z,2.11
2019-03-21T07:31:24.541Z,2.23
2019-03-21T07:34:21.874Z,2.35
2019-03-21T07:37:19.051Z,2.46
2019-03-21T07:40:14.743Z,2.58
2019-03-21T07:43:11.101Z,2.70
2019-03-21T07:46:10.572Z,2.81
2019-03-21T07:49:06.611Z,2.90
2019-03-21T07:52:03.909Z,3.06
2019-03-21T07:55:01.400Z,3.19
2019-03-21T07:57:59.919Z,3.36
2019-03-21T08:00:56.220Z,3.51
2019-03-21T08:03:53.558Z,3.68
2019-03-21T08:06:50.808Z,3.85
2019-03-21T08:09:47.857Z,4.05
2019-03-21T08:12:45.488Z,4.26
2019-03-21T08:15:42.209Z,4.39
2019-03-21T08:18:39.634Z,4.64
2019-03-21T08:21:35.937Z,4.91
2019-03-21T08:24:32.910Z,5.08
2019-03-21T08:27:29.238Z,5.14
2019-03-21T08:30:27.882Z,5.23
2019-03-21T08:33:24.069Z,5.33
2019-03-21T08:36:22.140Z,5.50
2019-03-21T08:39:19.344Z,5.58
2019-03-21T08:42:14.902Z,5.65
2019-03-21T08:45:11.983Z,5.68
2019-03-21T08:48:08.298Z,5.70
2019-03-21T08:51:08.580Z,5.77
2019-03-21T08:54:01.880Z,5.91
2019-03-21T08:56:58.946Z,6.05
2019-03-21T08:59:56.307Z,6.14
2019-03-21T09:02:53.394Z,6.31
2019-03-21T09:05:55.256Z,6.47
2019-03-21T09:08:52.478Z,6.59
2019-03-21T09:11:49.629Z,6.70
2019-03-21T09:14:45.500Z,6.84
2019-03-21T09:17:47.279Z,6.88
2019-03-21T09:20:44.686Z,6.93
2019-03-21T09:23:42.009Z,7.12
2019-03-21T09:26:39.197Z,7.29
2019-03-21T09:29:35.828Z,7.41
2019-03-21T09:32:32.909Z,7.53
2019-03-21T09:35:29.684Z,7.69
2019-03-21T09:38:26.733Z,7.86
2019-03-21T09:41:22.629Z,7.89
2019-03-21T09:44:19.197Z,7.91
2019-03-21T09:47:15.101Z,8.06
2019-03-21T09:50:13.240Z,8.17
2019-03-21T09:53:10.245Z,8.21
2019-03-21T09:56:06.948Z,8.29
2019-03-21T09:59:04.135Z,8.37
2019-03-21T10:01:59.779Z,8.47
2019-03-21T10:04:59.021Z,8.61
2019-03-21T10:07:55.870Z,8.71
2019-03-21T10:10:52.845Z,8.74
2019-03-21T10:13:48.790Z,8.82
2019-03-21T10:16:45.865Z,8.83
2019-03-21T10:19:42.050Z,8.86
2019-03-21T10:22:39.152Z,8.91
2019-03-21T10:25:36.272Z,8.93
2019-03-21T10:28:32.347Z,9.02
2019-03-21T10:31:29.881Z,9.08
2019-03-21T10:34:25.921Z,9.20
2019-03-21T10:37:23.249Z,9.33
2019-03-21T10:40:19.930Z,9.56
2019-03-21T10:43:17.123Z,9.63
2019-03-21T10:46:14.246Z,9.56
2019-03-21T10:49:11.480Z,9.57
2019-03-21T10:52:09.659Z,9.67
2019-03-21T10:55:05.783Z,9.76
2019-03-21T10:58:03.007Z,9.68
2019-03-21T11:00:59.183Z,9.74
2019-03-21T11:03:56.297Z,9.84
2019-03-21T11:06:53.787Z,9.92
2019-03-21T11:09:51.695Z,9.96
2019-03-21T11:12:47.884Z,10.06
2019-03-21T11:15:45.073Z,10.18
2019-03-21T11:18:42.395Z,10.22
2019-03-21T11:21:40.883Z,10.33
2019-03-21T11:24:36.914Z,10.44
2019-03-21T11:27:34.980Z,10.52
2019-03-21T11:30:32.063Z,10.57
2019-03-21T11:33:29.327Z,10.78
2019-03-21T11:36:25.340Z,10.78
2019-03-21T11:39:23.900Z,10.73
2019-03-21T11:42:26.589Z,10.82
2019-03-21T11:45:22.513Z,10.79
2019-03-21T11:48:20.704Z,10.82
2019-03-21T11:51:17.992Z,10.91
2019-03-21T11:54:16.204Z,11.10
2019-03-21T11:57:12.597Z,11.15
2019-03-21T12:00:09.711Z,11.17
2019-03-21T12:03:06.087Z,11.32
2019-03-21T12:06:04.055Z,11.32
2019-03-21T12:09:01.218Z,11.27
2019-03-21T12:11:57.444Z,11.22
2019-03-21T12:14:52.541Z,11.34
2019-03-21T12:17:51.019Z,11.42
2019-03-21T12:20:53.209Z,11.42
2019-03-21T12:23:49.585Z,11.50
2019-03-21T12:26:46.934Z,11.60
2019-03-21T12:29:43.109Z,11.66
2019-03-21T12:32:40.238Z,11.66
2019-03-21T12:35:37.292Z,11.77
2019-03-21T12:38:33.621Z,11.84
2019-03-21T12:41:30.317Z,11.86
2019-03-21T12:44:26.608Z,11.87
2019-03-21T12:47:31.154Z,11.94
2019-03-21T12:50:19.836Z,11.95
2019-03-21T12:53:17.026Z,12.00
2019-03-21T12:56:14.249Z,12.00
2019-03-21T12:59:11.354Z,12.08
2019-03-21T13:02:07.618Z,12.12
2019-03-21T13:05:04.849Z,12.18
2019-03-21T13:08:02.854Z,12.22
2019-03-21T13:11:00.901Z,12.16
2019-03-21T13:13:56.388Z,12.10
2019-03-21T13:16:52.555Z,12.11
2019-03-21T13:19:49.893Z,12.13
2019-03-21T13:22:53.015Z,12.20
2019-03-21T13:25:43.071Z,12.27
2019-03-21T13:28:40.231Z,12.37
2019-03-21T13:31:38.702Z,12.49
2019-03-21T13:34:34.162Z,12.55
2019-03-21T13:37:32.335Z,12.51
2019-03-21T13:40:27.476Z,12.60
2019-03-21T13:43:25.874Z,12.63
2019-03-21T13:46:26.452Z,12.58
2019-03-21T13:49:24.900Z,12.55
2019-03-21T13:52:22.064Z,12.54
2019-03-21T13:55:18.705Z,12.54
2019-03-21T13:58:15.857Z,12.56
2019-03-21T14:01:13.213Z,12.69
2019-03-21T14:04:09.535Z,12.80
2019-03-21T14:07:06.296Z,12.84
2019-03-21T14:10:05.511Z,12.93
2019-03-21T14:13:02.335Z,13.07
2019-03-21T14:15:58.013Z,13.26
2019-03-21T14:18:57.633Z,13.33
2019-03-21T14:21:54.991Z,13.46
2019-03-21T14:24:51.266Z,13.61
2019-03-21T14:27:48.273Z,13.56
2019-03-21T14:30:45.349Z,13.68
2019-03-21T14:35:42.041Z,13.85
2019-03-21T14:38:25.328Z,13.98
2019-03-21T14:40:46.170Z,14.13
2019-03-21T14:43:16.919Z,14.22
2019-03-21T14:45:47.752Z,14.23
2019-03-21T14:48:18.481Z,14.25
2019-03-21T14:50:49.217Z,14.30
2019-03-21T14:53:28.793Z,14.41
2019-03-21T14:55:52.514Z,14.75
2019-03-21T14:58:23.299Z,15.05
2019-03-21T15:00:54.816Z,15.44
2019-03-21T15:03:25.583Z,15.79
2019-03-21T15:05:56.378Z,16.12
2019-03-21T15:08:28.100Z,16.26
2019-03-21T15:10:58.984Z,16.49
2019-03-21T15:13:29.874Z,16.67
2019-03-21T15:16:00.751Z,16.81
2019-03-21T15:18:31.561Z,16.75
2019-03-21T15:21:03.206Z,16.65
2019-03-21T15:23:40.561Z,16.47
2019-03-21T15:26:06.471Z,16.36
2019-03-21T15:28:38.790Z,16.43
2019-03-21T15:31:09.625Z,16.49
2019-03-21T15:33:41.249Z,16.28
2019-03-21T15:36:12.469Z,16.26
2019-03-21T15:38:43.265Z,16.27
2019-03-21T15:41:14.321Z,16.11
2019-03-21T15:43:45.099Z,16.03
2019-03-21T15:46:15.869Z,15.89
2019-03-21T15:48:46.678Z,15.73
2019-03-21T15:51:17.486Z,15.55
2019-03-21T15:53:55.950Z,15.28
2019-03-21T15:56:20.694Z,15.05
2019-03-21T15:58:52.991Z,14.84
2019-03-21T16:01:26.227Z,14.58
2019-03-21T16:03:57.022Z,14.27
2019-03-21T16:06:27.808Z,14.00
2019-03-21T16:08:58.594Z,13.83
2019-03-21T16:11:31.346Z,13.73
2019-03-21T16:14:02.174Z,13.59
2019-03-21T16:16:32.935Z,13.49
2019-03-21T16:19:04.465Z,13.39
2019-03-21T16:21:35.295Z,13.29
2019-03-21T16:24:06.107Z,13.19
2019-03-21T16:26:37.038Z,13.13
2019-03-21T16:29:10.053Z,13.05
2019-03-21T16:31:40.719Z,12.98
2019-03-21T16:34:13.847Z,12.91
2019-03-21T16:36:44.745Z,12.83
2019-03-21T16:39:15.598Z,12.76
2019-03-21T16:41:46.317Z,12.70
2019-03-21T16:44:17.082Z,12.60
2019-03-21T16:46:48.667Z,12.51
2019-03-21T16:49:19.612Z,12.47
2019-03-21T16:51:50.420Z,12.39
2019-03-21T16:54:21.368Z,12.32
2019-03-21T16:56:52.148Z,12.25
2019-03-21T16:59:22.943Z,12.17
2019-03-21T17:01:53.849Z,12.11
2019-03-21T17:04:24.713Z,12.04
2019-03-21T17:06:56.637Z,11.97
2019-03-21T17:09:27.496Z,11.94
2019-03-21T17:11:59.105Z,11.88
2019-03-21T17:14:29.828Z,11.82
2019-03-21T17:17:00.593Z,11.70
2019-03-21T17:19:31.340Z,11.62
2019-03-21T17:22:02.102Z,11.51
2019-03-21T17:24:32.841Z,11.42
2019-03-21T17:27:03.642Z,11.35
2019-03-21T17:29:34.386Z,11.28
2019-03-21T17:32:05.338Z,11.20
2019-03-21T17:34:36.156Z,11.13
2019-03-21T17:37:06.934Z,11.03
2019-03-21T17:39:37.756Z,10.94
2019-03-21T17:42:09.913Z,10.86
2019-03-21T17:44:42.276Z,10.78
2019-03-21T17:47:13.290Z,10.71
2019-03-21T17:49:44.065Z,10.62
2019-03-21T17:52:14.929Z,10.55
2019-03-21T17:54:45.826Z,10.46
2019-03-21T17:57:16.730Z,10.32
2019-03-21T17:59:48.279Z,10.18
2019-03-21T18:04:39.921Z,9.95
2019-03-21T18:07:11.764Z,9.80
2019-03-21T18:09:44.391Z,9.66
2019-03-21T18:12:15.414Z,9.52
2019-03-21T18:14:46.157Z,9.41
2019-03-21T18:17:17.138Z,9.32
2019-03-21T18:19:48.707Z,9.25
2019-03-21T18:22:19.575Z,9.17
2019-03-21T18:24:54.141Z,9.10
2019-03-21T18:27:22.965Z,9.04
2019-03-21T18:29:54.758Z,8.95
2019-03-21T18:32:26.286Z,8.85
2019-03-21T18:34:57.082Z,8.76
2019-03-21T18:37:27.910Z,8.68
2019-03-21T18:39:59.559Z,8.56
2019-03-21T18:42:30.369Z,8.48
2019-03-21T18:45:01.138Z,8.39
2019-03-21T18:47:32.597Z,8.30
2019-03-21T18:50:03.539Z,8.22
2019-03-21T18:52:35.931Z,8.12
2019-03-21T18:55:07.676Z,8.02
2019-03-21T18:57:38.526Z,7.91
2019-03-21T19:00:09.824Z,7.79
2019-03-21T19:02:41.769Z,7.66
2019-03-21T19:05:13.919Z,7.54
2019-03-21T19:07:44.734Z,7.43
2019-03-21T19:10:16.069Z,7.37
2019-03-21T19:12:47.277Z,7.33
2019-03-21T19:15:18.375Z,7.28
2019-03-21T19:17:49.120Z,7.20
2019-03-21T19:20:20.043Z,7.14
2019-03-21T19:22:50.844Z,7.09
2019-03-21T19:25:21.722Z,7.02
2019-03-21T19:27:52.529Z,6.95
2019-03-21T19:30:23.909Z,6.87
2019-03-21T19:32:56.472Z,6.77
2019-03-21T19:35:29.489Z,6.68
2019-03-21T19:38:00.395Z,6.63
2019-03-21T19:40:31.356Z,6.55
2019-03-21T19:43:03.126Z,6.52
2019-03-21T19:45:33.993Z,6.48
2019-03-21T19:48:04.820Z,6.41
2019-03-21T19:50:35.914Z,6.34
2019-03-21T19:53:06.701Z,6.29
2019-03-21T19:55:37.590Z,6.23
2019-03-21T19:58:08.539Z,6.16
2019-03-21T20:00:39.367Z,6.12
2019-03-21T20:03:11.971Z,6.10
2019-03-21T20:05:43.513Z,6.07
2019-03-21T20:08:14.888Z,6.05
2019-03-21T20:10:45.632Z,6.03
2019-03-21T20:13:16.407Z,6.01
2019-03-21T20:15:48.802Z,6.00
2019-03-21T20:18:20.424Z,5.99
2019-03-21T20:20:51.144Z,5.94
2019-03-21T20:23:22.727Z,5.91
2019-03-21T20:25:53.534Z,5.86
2019-03-21T20:28:24.428Z,5.80
2019-03-21T20:30:55.217Z,5.75
2019-03-21T20:33:25.974Z,5.69
2019-03-21T20:35:56.799Z,5.64
2019-03-21T20:38:29.381Z,5.59
2019-03-21T20:41:00.168Z,5.52
2019-03-21T20:43:31.889Z,5.49
2019-03-21T20:46:02.762Z,5.47
2019-03-21T20:48:32.274Z,5.46
2019-03-21T20:51:03.178Z,5.44
2019-03-21T20:53:34.010Z,5.41
2019-03-21T20:56:05.604Z,5.40
2019-03-21T20:58:36.394Z,5.40
2019-03-21T21:01:07.283Z,5.39
2019-03-21T21:03:38.014Z,5.39
2019-03-21T21:06:08.766Z,5.36
2019-03-21T21:08:39.650Z,5.34
2019-03-21T21:11:12.528Z,5.33
2019-03-21T21:13:43.361Z,5.32
2019-03-21T21:16:15.793Z,5.31
2019-03-21T21:18:46.636Z,5.25
2019-03-21T21:21:18.671Z,5.23
2019-03-21T21:23:49.473Z,5.19
2019-03-21T21:26:20.272Z,5.15
2019-03-21T21:28:51.010Z,5.10
2019-03-21T21:31:21.736Z,5.11
2019-03-21T21:33:52.575Z,5.03
2019-03-21T21:36:23.322Z,4.99
2019-03-21T21:38:54.077Z,4.97
2019-03-21T21:41:24.853Z,4.99
2019-03-21T21:43:55.610Z,4.97
2019-03-21T21:46:26.410Z,4.94
2019-03-21T21:48:57.279Z,4.88
2019-03-21T21:51:28.869Z,4.85
2019-03-21T21:54:00.228Z,4.85
2019-03-21T21:56:31.074Z,4.84
2019-03-21T21:59:02.085Z,4.84
2019-03-21T22:01:32.999Z,4.82
2019-03-21T22:04:04.979Z,4.83
2019-03-21T22:06:35.991Z,4.83
2019-03-21T22:09:08.887Z,4.84
2019-03-21T22:11:39.729Z,4.84
2019-03-21T22:14:10.522Z,4.82
2019-03-21T22:16:42.083Z,4.74
2019-03-21T22:19:14.689Z,4.71
2019-03-21T22:21:45.434Z,4.70
2019-03-21T22:24:17.901Z,4.66
2019-03-21T22:26:48.656Z,4.62
2019-03-21T22:29:20.281Z,4.58
2019-03-21T22:31:51.845Z,4.53
2019-03-21T22:34:25.024Z,4.50
2019-03-21T22:36:55.839Z,4.48
2019-03-21T22:39:26.712Z,4.45
2019-03-21T22:41:58.542Z,4.42
2019-03-21T22:44:30.064Z,4.39
2019-03-21T22:47:00.876Z,4.38
2019-03-21T22:49:31.668Z,4.34
2019-03-21T22:52:04.004Z,4.28
2019-03-21T22:54:34.762Z,4.23
2019-03-21T22:57:06.389Z,4.24
2019-03-21T22:59:37.306Z,4.18
2019-03-21T23:02:09.472Z,4.16
2019-03-21T23:04:40.299Z,4.17
2019-03-21T23:07:11.099Z,4.18
2019-03-21T23:09:41.986Z,4.18
2019-03-21T23:12:13.586Z,4.18
2019-03-21T23:14:44.297Z,4.18
2019-03-21T23:17:15.816Z,4.21
2019-03-21T23:19:47.364Z,4.22
2019-03-21T23:22:18.088Z,4.23
2019-03-21T23:24:49.751Z,4.21
2019-03-21T23:27:20.519Z,4.20
2019-03-21T23:29:51.482Z,4.20
2019-03-21T23:32:22.230Z,4.19
2019-03-21T23:34:53.872Z,4.18
2019-03-21T23:37:24.604Z,4.19
2019-03-21T23:39:55.323Z,4.18
2019-03-21T23:42:25.969Z,4.15
2019-03-21T23:44:56.657Z,4.12
2019-03-21T23:47:27.441Z,4.11
2019-03-21T23:49:59.910Z,4.10
2019-03-21T23:52:30.685Z,4.10
2019-03-21T23:55:01.410Z,4.10
2019-03-21T23:57:32.218Z,4.07
